createdAt,value
2018-07-17T00:00:16.256Z,19.30
2018-07-17T00:02:44.700Z,19.30
2018-07-17T00:05:13.117Z,19.30
2018-07-17T00:07:41.558Z,19.20
2018-07-17T00:10:10.012Z,19.30
2018-07-17T00:12:38.696Z,19.30
2018-07-17T00:15:07.115Z,19.20
2018-07-17T00:17:35.787Z,19.10
2018-07-17T00:20:04.254Z,19.10
2018-07-17T00:22:32.655Z,19.00
2018-07-17T00:25:01.137Z,19.00
2018-07-17T00:27:29.513Z,19.00
2018-07-17T00:29:57.894Z,19.10
2018-07-17T00:32:26.345Z,19.10
2018-07-17T00:34:54.776Z,19.10
2018-07-17T00:37:23.144Z,19.10
2018-07-17T00:39:51.544Z,19.00
2018-07-17T00:42:20.060Z,19.00
2018-07-17T00:44:48.552Z,18.90
2018-07-17T00:47:16.955Z,18.80
2018-07-17T00:49:45.376Z,18.80
2018-07-17T00:52:13.745Z,18.90
2018-07-17T00:54:42.219Z,18.90
2018-07-17T00:57:10.596Z,19.00
2018-07-17T00:59:38.987Z,19.00
2018-07-17T01:02:12.668Z,19.00
2018-07-17T01:04:46.297Z,18.90
2018-07-17T01:07:19.977Z,18.80
2018-07-17T01:09:53.732Z,18.70
2018-07-17T01:12:21.346Z,18.70
2018-07-17T01:15:27.031Z,18.60
2018-07-17T01:17:55.471Z,18.60
2018-07-17T01:20:23.991Z,18.60
2018-07-17T01:22:52.435Z,18.60
2018-07-17T01:25:20.963Z,18.50
2018-07-17T01:27:49.517Z,18.50
2018-07-17T01:30:17.920Z,18.50
2018-07-17T01:32:46.305Z,18.50
2018-07-17T01:35:14.680Z,18.60
2018-07-17T01:37:43.046Z,18.70
2018-07-17T01:40:11.483Z,18.80
2018-07-17T01:42:39.876Z,18.90
2018-07-17T01:45:08.334Z,19.00
2018-07-17T01:47:36.720Z,19.00
2018-07-17T01:50:05.234Z,19.00
2018-07-17T01:52:33.657Z,19.20
2018-07-17T01:55:02.059Z,19.20
2018-07-17T01:57:30.476Z,19.20
2018-07-17T01:59:58.881Z,19.20
2018-07-17T02:02:27.247Z,19.30
2018-07-17T02:04:55.765Z,19.40
2018-07-17T02:07:24.191Z,19.50
2018-07-17T02:09:52.604Z,19.50
2018-07-17T02:12:21.016Z,19.40
2018-07-17T02:14:49.431Z,19.30
2018-07-17T02:17:17.830Z,19.30
2018-07-17T02:19:46.269Z,19.40
2018-07-17T02:22:14.676Z,19.40
2018-07-17T02:24:43.219Z,19.50
2018-07-17T02:27:11.627Z,19.70
2018-07-17T02:29:40.017Z,19.70
2018-07-17T02:32:08.449Z,19.80
2018-07-17T02:34:36.845Z,19.80
2018-07-17T02:37:05.564Z,19.80
2018-07-17T02:39:33.943Z,19.90
2018-07-17T02:42:02.537Z,19.90
2018-07-17T02:44:30.908Z,19.90
2018-07-17T02:46:59.308Z,19.90
2018-07-17T02:49:27.705Z,19.90
2018-07-17T02:51:56.104Z,19.90
2018-07-17T02:54:24.468Z,19.90
2018-07-17T02:56:52.898Z,20.00
2018-07-17T02:59:21.906Z,20.00
2018-07-17T03:01:50.455Z,19.80
2018-07-17T03:04:18.967Z,19.60
2018-07-17T03:06:47.564Z,19.50
2018-07-17T03:09:16.022Z,19.50
2018-07-17T03:11:44.473Z,19.40
2018-07-17T03:14:12.927Z,19.30
2018-07-17T03:16:41.447Z,19.20
2018-07-17T03:19:09.974Z,19.10
2018-07-17T03:21:38.916Z,19.00
2018-07-17T03:24:07.385Z,18.90
2018-07-17T03:26:36.188Z,18.90
2018-07-17T03:29:04.587Z,19.00
2018-07-17T03:31:33.027Z,18.90
2018-07-17T03:34:02.208Z,18.80
2018-07-17T03:36:30.765Z,18.80
2018-07-17T03:38:59.119Z,18.70
2018-07-17T03:41:27.562Z,18.60
2018-07-17T03:43:56.021Z,18.70
2018-07-17T03:46:24.579Z,18.60
2018-07-17T03:48:53.065Z,18.60
2018-07-17T03:51:21.640Z,18.60
2018-07-17T03:53:50.070Z,18.60
2018-07-17T03:56:18.541Z,18.60
2018-07-17T03:58:46.934Z,18.60
2018-07-17T04:01:15.295Z,18.60
2018-07-17T04:03:43.780Z,18.60
2018-07-17T04:06:12.163Z,18.60
2018-07-17T04:08:40.610Z,18.60
2018-07-17T04:11:08.936Z,18.70
2018-07-17T04:13:37.331Z,18.70
2018-07-17T04:16:05.707Z,18.60
2018-07-17T04:18:34.124Z,18.70
2018-07-17T04:21:02.535Z,18.60
2018-07-17T04:23:30.991Z,18.70
2018-07-17T04:25:59.391Z,18.70
2018-07-17T04:28:27.767Z,18.90
2018-07-17T04:30:56.207Z,18.90
2018-07-17T04:33:24.589Z,18.90
2018-07-17T04:35:53.271Z,19.00
2018-07-17T04:38:21.799Z,19.10
2018-07-17T04:40:50.160Z,19.30
2018-07-17T04:43:18.597Z,19.40
2018-07-17T04:45:47.133Z,19.30
2018-07-17T04:48:15.720Z,19.40
2018-07-17T04:50:44.332Z,19.60
2018-07-17T04:53:12.822Z,19.70
2018-07-17T04:55:41.396Z,19.80
2018-07-17T04:58:09.739Z,19.80
2018-07-17T05:00:38.183Z,19.80
2018-07-17T05:03:06.606Z,20.00
2018-07-17T05:05:34.968Z,20.00
2018-07-17T05:08:03.411Z,20.00
2018-07-17T05:10:31.852Z,20.20
2018-07-17T05:13:00.383Z,20.40
2018-07-17T05:15:28.719Z,20.70
2018-07-17T05:17:57.111Z,20.70
2018-07-17T05:20:25.590Z,21.20
2018-07-17T05:22:54.063Z,23.30
2018-07-17T05:25:22.452Z,25.90
2018-07-17T05:27:50.876Z,26.30
2018-07-17T05:30:19.459Z,26.70
2018-07-17T05:32:47.845Z,26.00
2018-07-17T05:35:16.355Z,26.10
2018-07-17T05:37:44.769Z,26.00
2018-07-17T05:40:13.168Z,26.30
2018-07-17T05:42:41.660Z,27.20
2018-07-17T05:45:10.120Z,28.60
2018-07-17T05:47:40.882Z,30.30
2018-07-17T05:50:10.232Z,32.10
2018-07-17T05:52:38.966Z,32.10
2018-07-17T05:55:07.381Z,33.10
2018-07-17T05:57:35.947Z,32.90
2018-07-17T06:00:05.212Z,33.80
2018-07-17T06:02:33.607Z,35.00
2018-07-17T06:05:02.045Z,35.00
2018-07-17T06:07:30.550Z,34.10
2018-07-17T06:09:58.948Z,35.20
2018-07-17T06:12:27.402Z,35.60
2018-07-17T06:14:55.811Z,32.10
2018-07-17T06:17:24.483Z,30.10
2018-07-17T06:19:53.190Z,28.60
2018-07-17T06:22:21.656Z,28.00
2018-07-17T06:24:50.084Z,27.40
2018-07-17T06:27:18.725Z,26.20
2018-07-17T06:29:47.280Z,25.30
2018-07-17T06:32:16.038Z,24.80
2018-07-17T06:34:44.635Z,24.80
2018-07-17T06:37:13.044Z,24.40
2018-07-17T06:39:41.669Z,24.30
2018-07-17T06:42:10.652Z,24.30
2018-07-17T06:44:39.170Z,24.20
2018-07-17T06:47:07.651Z,24.30
2018-07-17T06:49:36.084Z,24.00
2018-07-17T06:52:04.620Z,24.00
2018-07-17T06:54:33.075Z,23.90
2018-07-17T06:57:01.528Z,24.00
2018-07-17T06:59:29.892Z,24.00
2018-07-17T07:01:58.401Z,24.00
2018-07-17T07:04:26.759Z,24.00
2018-07-17T07:06:55.151Z,24.20
2018-07-17T07:09:23.652Z,24.40
2018-07-17T07:11:52.140Z,24.90
2018-07-17T07:14:20.716Z,25.20
2018-07-17T07:16:49.220Z,25.30
2018-07-17T07:19:17.719Z,25.30
2018-07-17T07:21:46.165Z,26.10
2018-07-17T07:24:14.567Z,26.40
2018-07-17T07:26:42.975Z,26.20
2018-07-17T07:29:11.367Z,25.70
2018-07-17T07:34:07.948Z,26.60
2018-07-17T07:36:36.474Z,27.40
2018-07-17T07:39:07.572Z,26.90
2018-07-17T07:41:36.108Z,26.50
2018-07-17T07:44:04.861Z,27.00
2018-07-17T07:46:33.256Z,28.00
2018-07-17T07:49:01.974Z,29.20
2018-07-17T07:51:30.746Z,32.20
2018-07-17T07:54:05.892Z,32.40
2018-07-17T07:56:34.239Z,35.00
2018-07-17T07:59:02.683Z,36.20
2018-07-17T08:01:31.062Z,35.30
2018-07-17T08:03:59.750Z,35.10
2018-07-17T08:06:28.187Z,35.00
2018-07-17T08:08:56.830Z,35.30
2018-07-17T08:11:25.256Z,36.50
2018-07-17T08:13:53.683Z,37.20
2018-07-17T08:16:22.104Z,36.60
2018-07-17T08:18:50.579Z,38.00
2018-07-17T08:21:18.973Z,37.70
2018-07-17T08:23:47.505Z,35.90
2018-07-17T08:26:15.963Z,36.10
2018-07-17T08:28:44.522Z,37.30
2018-07-17T08:31:13.072Z,35.90
2018-07-17T08:33:41.609Z,34.20
2018-07-17T08:36:10.335Z,33.80
2018-07-17T08:38:38.831Z,35.50
2018-07-17T08:41:07.506Z,34.80
2018-07-17T08:43:35.951Z,35.70
2018-07-17T08:46:04.430Z,34.40
2018-07-17T08:48:32.923Z,33.70
2018-07-17T08:51:01.383Z,32.90
2018-07-17T08:53:29.858Z,34.10
2018-07-17T08:55:58.778Z,36.30
2018-07-17T08:58:27.426Z,37.70
2018-07-17T09:00:55.961Z,38.70
2018-07-17T09:03:24.565Z,39.10
2018-07-17T09:05:53.091Z,38.30
2018-07-17T09:08:21.488Z,37.90
2018-07-17T09:10:50.014Z,36.50
2018-07-17T09:13:18.568Z,35.50
2018-07-17T09:15:47.120Z,34.20
2018-07-17T09:18:15.655Z,36.00
2018-07-17T09:20:44.171Z,36.40
2018-07-17T09:23:12.611Z,36.60
2018-07-17T09:25:41.367Z,37.40
2018-07-17T09:28:09.846Z,37.80
2018-07-17T09:30:43.627Z,37.30
2018-07-17T09:33:12.264Z,38.20
2018-07-17T09:35:40.779Z,38.50
2018-07-17T09:38:09.614Z,38.30
2018-07-17T09:40:38.495Z,36.10
2018-07-17T09:43:07.421Z,36.50
2018-07-17T09:45:36.016Z,36.60
2018-07-17T09:48:04.480Z,35.60
2018-07-17T09:50:33.094Z,35.20
2018-07-17T09:53:01.535Z,35.20
2018-07-17T09:55:30.052Z,33.30
2018-07-17T09:57:58.691Z,33.80
2018-07-17T10:00:32.702Z,32.90
2018-07-17T10:03:01.235Z,33.00
2018-07-17T10:05:29.806Z,32.40
2018-07-17T10:07:58.251Z,32.40
2018-07-17T10:10:26.754Z,32.40
2018-07-17T10:12:55.211Z,32.10
2018-07-17T10:15:23.663Z,32.20
2018-07-17T10:17:52.172Z,32.70
2018-07-17T10:20:20.617Z,32.10
2018-07-17T10:25:17.450Z,32.50
2018-07-17T10:27:46.078Z,32.00
2018-07-17T10:30:14.584Z,32.20
2018-07-17T10:32:46.151Z,32.40
2018-07-17T10:35:14.916Z,31.70
2018-07-17T10:37:43.388Z,31.70
2018-07-17T10:40:11.841Z,31.50
2018-07-17T10:42:40.248Z,31.30
2018-07-17T10:45:08.731Z,31.70
2018-07-17T10:47:37.363Z,31.80
2018-07-17T10:50:05.800Z,31.90
2018-07-17T10:52:34.313Z,31.70
2018-07-17T10:55:02.729Z,31.30
2018-07-17T10:57:31.270Z,31.60
2018-07-17T10:59:59.676Z,31.10
2018-07-17T11:02:28.132Z,30.90
2018-07-17T11:04:56.562Z,30.90
2018-07-17T11:07:25.016Z,31.20
2018-07-17T11:09:53.427Z,31.40
2018-07-17T11:14:50.145Z,31.30
2018-07-17T11:17:18.664Z,31.10
2018-07-17T11:19:47.079Z,31.40
2018-07-17T11:22:15.573Z,31.20
2018-07-17T11:24:44.191Z,30.90
2018-07-17T11:27:12.635Z,31.10
2018-07-17T11:29:41.073Z,31.10
2018-07-17T11:32:09.975Z,30.90
2018-07-17T11:34:38.395Z,31.30
2018-07-17T11:37:07.005Z,31.70
2018-07-17T11:39:35.375Z,31.50
2018-07-17T11:42:03.911Z,31.20
2018-07-17T11:44:32.392Z,31.70
2018-07-17T11:47:00.847Z,31.30
2018-07-17T11:51:59.458Z,31.10
2018-07-17T11:54:28.035Z,31.20
2018-07-17T11:56:56.501Z,30.90
2018-07-17T11:59:25.334Z,31.00
2018-07-17T12:01:55.325Z,30.70
2018-07-17T12:04:23.802Z,30.60
2018-07-17T12:06:52.333Z,30.80
2018-07-17T12:09:20.779Z,31.10
2018-07-17T12:11:49.405Z,31.40
2018-07-17T12:14:17.833Z,31.50
2018-07-17T12:16:46.383Z,31.00
2018-07-17T12:19:14.885Z,30.60
2018-07-17T12:21:43.340Z,30.50
2018-07-17T12:24:12.182Z,30.80
2018-07-17T12:26:40.703Z,30.70
2018-07-17T12:29:09.124Z,31.00
2018-07-17T12:31:37.660Z,31.20
2018-07-17T12:34:06.162Z,31.60
2018-07-17T12:36:34.692Z,31.60
2018-07-17T12:39:03.238Z,31.40
2018-07-17T12:41:31.766Z,31.70
2018-07-17T12:44:00.215Z,31.90
2018-07-17T12:46:28.696Z,31.70
2018-07-17T12:51:25.493Z,32.10
2018-07-17T12:53:53.981Z,32.40
2018-07-17T12:56:22.488Z,32.30
2018-07-17T12:58:50.921Z,31.80
2018-07-17T13:01:19.303Z,32.00
2018-07-17T13:03:47.723Z,31.90
2018-07-17T13:06:16.106Z,31.70
2018-07-17T13:08:46.699Z,32.00
2018-07-17T13:11:15.139Z,32.00
2018-07-17T13:13:43.612Z,31.50
2018-07-17T13:16:12.072Z,31.40
2018-07-17T13:18:40.807Z,31.10
2018-07-17T13:21:10.015Z,31.20
2018-07-17T13:23:38.507Z,31.40
2018-07-17T13:26:07.442Z,31.40
2018-07-17T13:28:35.911Z,31.20
2018-07-17T13:31:04.342Z,30.70
2018-07-17T13:36:01.409Z,30.50
2018-07-17T13:38:29.812Z,31.00
2018-07-17T13:40:58.485Z,31.20
2018-07-17T13:43:26.931Z,31.20
2018-07-17T13:45:55.352Z,31.30
2018-07-17T13:48:23.923Z,31.80
2018-07-17T13:50:52.692Z,31.50
2018-07-17T13:53:21.139Z,31.20
2018-07-17T13:55:49.604Z,31.20
2018-07-17T13:58:18.052Z,31.20
2018-07-17T14:00:46.613Z,31.00
2018-07-17T14:03:15.093Z,30.80
2018-07-17T14:05:44.068Z,30.30
2018-07-17T14:08:12.618Z,29.90
2018-07-17T14:10:41.077Z,30.30
2018-07-17T14:13:09.423Z,30.70
2018-07-17T14:15:37.947Z,30.50
2018-07-17T14:18:06.356Z,30.70
2018-07-17T14:20:34.816Z,30.80
2018-07-17T14:23:03.308Z,30.30
2018-07-17T14:25:32.049Z,30.50
2018-07-17T14:28:00.518Z,30.50
2018-07-17T14:30:28.998Z,30.80
2018-07-17T14:32:57.436Z,30.80
2018-07-17T14:35:25.879Z,30.80
2018-07-17T14:38:00.661Z,30.40
2018-07-17T14:40:29.564Z,30.70
2018-07-17T14:42:58.090Z,31.00
2018-07-17T14:45:26.518Z,30.80
2018-07-17T14:47:54.906Z,30.90
2018-07-17T14:50:23.316Z,31.20
2018-07-17T14:52:51.705Z,31.00
2018-07-17T14:55:20.248Z,31.30
2018-07-17T14:57:48.665Z,31.80
2018-07-17T15:00:17.314Z,31.50
2018-07-17T15:02:45.776Z,31.00
2018-07-17T15:05:14.424Z,30.50
2018-07-17T15:07:42.864Z,30.50
2018-07-17T15:12:39.606Z,30.60
2018-07-17T15:15:09.061Z,30.50
2018-07-17T15:17:37.602Z,30.50
2018-07-17T15:20:06.261Z,30.60
2018-07-17T15:22:34.704Z,30.30
2018-07-17T15:25:03.356Z,30.10
2018-07-17T15:27:31.978Z,30.10
2018-07-17T15:30:00.403Z,29.80
2018-07-17T15:32:28.869Z,29.70
2018-07-17T15:34:57.409Z,30.10
2018-07-17T15:37:25.828Z,30.60
2018-07-17T15:39:54.244Z,30.30
2018-07-17T15:42:22.773Z,30.20
2018-07-17T15:44:51.246Z,30.60
2018-07-17T15:47:19.698Z,30.50
2018-07-17T15:49:48.166Z,30.50
2018-07-17T15:52:16.632Z,30.30
2018-07-17T15:54:45.097Z,30.10
2018-07-17T15:57:13.576Z,30.10
2018-07-17T15:59:42.027Z,29.80
2018-07-17T16:02:10.861Z,29.80
2018-07-17T16:04:39.302Z,29.70
2018-07-17T16:07:07.801Z,29.70
2018-07-17T16:09:36.519Z,29.80
2018-07-17T16:12:05.413Z,29.70
2018-07-17T16:14:33.870Z,29.60
2018-07-17T16:19:30.439Z,29.70
2018-07-17T16:24:27.370Z,29.40
2018-07-17T16:26:56.065Z,29.30
2018-07-17T16:29:24.711Z,29.20
2018-07-17T16:31:53.137Z,28.80
2018-07-17T16:34:21.551Z,28.70
2018-07-17T16:36:50.445Z,28.70
2018-07-17T16:39:18.963Z,28.70
2018-07-17T16:41:47.484Z,29.00
2018-07-17T16:44:16.063Z,29.30
2018-07-17T16:46:44.578Z,29.50
2018-07-17T16:49:13.100Z,29.50
2018-07-17T16:51:42.174Z,29.20
2018-07-17T16:54:10.849Z,29.10
2018-07-17T16:56:39.327Z,28.70
2018-07-17T16:59:07.755Z,28.50
2018-07-17T17:01:36.249Z,28.60
2018-07-17T17:04:05.176Z,28.60
2018-07-17T17:06:33.900Z,28.60
2018-07-17T17:09:02.538Z,28.60
2018-07-17T17:11:31.026Z,28.40
2018-07-17T17:13:59.426Z,28.50
2018-07-17T17:16:27.887Z,28.80
2018-07-17T17:18:56.319Z,28.80
2018-07-17T17:21:25.021Z,28.50
2018-07-17T17:23:53.547Z,28.50
2018-07-17T17:26:22.117Z,28.60
2018-07-17T17:28:50.594Z,28.80
2018-07-17T17:31:19.296Z,28.80
2018-07-17T17:33:47.803Z,28.50
2018-07-17T17:36:16.339Z,28.50
2018-07-17T17:38:44.716Z,28.20
2018-07-17T17:41:13.279Z,28.10
2018-07-17T17:43:41.843Z,28.10
2018-07-17T17:46:10.385Z,28.00
2018-07-17T17:48:39.068Z,28.00
2018-07-17T17:51:07.812Z,28.00
2018-07-17T17:53:36.328Z,28.10
2018-07-17T17:56:04.752Z,28.30
2018-07-17T17:58:33.277Z,28.00
2018-07-17T18:01:01.721Z,27.60
2018-07-17T18:03:30.192Z,27.20
2018-07-17T18:05:58.662Z,27.00
2018-07-17T18:08:27.159Z,26.90
2018-07-17T18:10:56.097Z,26.80
2018-07-17T18:13:24.668Z,26.80
2018-07-17T18:15:53.078Z,26.70
2018-07-17T18:18:21.823Z,26.60
2018-07-17T18:20:50.284Z,26.60
2018-07-17T18:23:18.681Z,26.30
2018-07-17T18:25:47.135Z,26.20
2018-07-17T18:28:15.611Z,26.20
2018-07-17T18:30:44.124Z,26.00
2018-07-17T18:33:12.583Z,25.90
2018-07-17T18:35:41.138Z,25.70
2018-07-17T18:38:09.529Z,25.70
2018-07-17T18:40:38.002Z,25.50
2018-07-17T18:43:06.408Z,25.30
2018-07-17T18:45:34.843Z,25.20
2018-07-17T18:48:03.281Z,25.10
2018-07-17T18:50:31.723Z,25.00
2018-07-17T18:53:00.215Z,24.90
2018-07-17T18:55:28.619Z,24.70
2018-07-17T18:57:57.051Z,24.50
2018-07-17T19:00:25.543Z,24.40
2018-07-17T19:02:54.021Z,24.30
2018-07-17T19:05:22.476Z,24.20
2018-07-17T19:07:51.195Z,24.00
2018-07-17T19:10:19.619Z,23.80
2018-07-17T19:12:48.326Z,23.70
2018-07-17T19:15:16.893Z,23.60
2018-07-17T19:17:45.466Z,23.50
2018-07-17T19:20:14.075Z,23.40
2018-07-17T19:22:42.532Z,23.40
2018-07-17T19:25:11.200Z,23.20
2018-07-17T19:27:39.695Z,23.20
2018-07-17T19:30:08.300Z,23.00
2018-07-17T19:32:36.956Z,22.90
2018-07-17T19:35:05.342Z,22.80
2018-07-17T19:37:33.763Z,22.70
2018-07-17T19:40:02.303Z,22.60
2018-07-17T19:42:30.791Z,22.50
2018-07-17T19:44:59.599Z,22.40
2018-07-17T19:47:28.092Z,22.40
2018-07-17T19:49:56.639Z,22.20
2018-07-17T19:52:25.271Z,22.10
2018-07-17T19:54:54.128Z,22.00
2018-07-17T19:57:23.315Z,21.90
2018-07-17T19:59:52.072Z,21.80
2018-07-17T20:02:21.548Z,21.70
2018-07-17T20:04:49.984Z,21.60
2018-07-17T20:07:18.685Z,21.60
2018-07-17T20:09:47.124Z,21.50
2018-07-17T20:12:15.614Z,21.40
2018-07-17T20:14:44.129Z,21.40
2018-07-17T20:17:12.897Z,21.30
2018-07-17T20:19:41.456Z,21.20
2018-07-17T20:22:10.012Z,21.10
2018-07-17T20:24:38.411Z,21.10
2018-07-17T20:27:07.051Z,21.00
2018-07-17T20:29:35.562Z,20.90
2018-07-17T20:32:04.218Z,20.80
2018-07-17T20:34:32.905Z,20.80
2018-07-17T20:37:01.570Z,20.70
2018-07-17T20:39:30.145Z,20.60
2018-07-17T20:41:59.420Z,20.60
2018-07-17T20:44:27.957Z,20.50
2018-07-17T20:46:56.441Z,20.40
2018-07-17T20:49:25.058Z,20.40
2018-07-17T20:51:53.743Z,20.30
2018-07-17T20:54:22.457Z,20.20
2018-07-17T20:56:50.996Z,20.20
2018-07-17T20:59:19.516Z,20.10
2018-07-17T21:01:47.985Z,20.00
2018-07-17T21:04:16.423Z,20.00
2018-07-17T21:06:44.801Z,20.00
2018-07-17T21:09:13.310Z,19.90
2018-07-17T21:11:42.613Z,19.90
2018-07-17T21:14:11.071Z,19.80
2018-07-17T21:16:39.563Z,19.80
2018-07-17T21:19:08.013Z,19.70
2018-07-17T21:21:36.528Z,19.70
2018-07-17T21:24:04.933Z,19.60
2018-07-17T21:26:35.680Z,19.50
2018-07-17T21:29:04.356Z,19.50
2018-07-17T21:31:32.762Z,19.40
2018-07-17T21:34:01.291Z,19.40
2018-07-17T21:36:32.659Z,19.40
2018-07-17T21:39:01.033Z,19.30
2018-07-17T21:41:29.348Z,19.30
2018-07-17T21:43:57.932Z,19.20
2018-07-17T21:46:26.307Z,19.30
2018-07-17T21:51:23.000Z,19.30
2018-07-17T21:53:51.375Z,19.20
2018-07-17T21:56:19.759Z,19.20
2018-07-17T21:58:48.169Z,19.20
2018-07-17T22:01:16.657Z,19.10
2018-07-17T22:03:45.211Z,19.10
2018-07-17T22:06:13.577Z,19.10
2018-07-17T22:08:42.159Z,19.20
2018-07-17T22:11:10.801Z,19.10
2018-07-17T22:13:39.192Z,19.10
2018-07-17T22:16:07.770Z,19.10
2018-07-17T22:18:36.884Z,19.00
2018-07-17T22:21:05.568Z,19.00
2018-07-17T22:23:33.935Z,18.90
2018-07-17T22:26:02.339Z,18.90
2018-07-17T22:28:30.745Z,18.90
2018-07-17T22:30:59.271Z,19.00
2018-07-17T22:33:27.695Z,19.00
2018-07-17T22:38:24.226Z,18.90
2018-07-17T22:40:52.579Z,18.80
2018-07-17T22:43:21.079Z,18.80
2018-07-17T22:45:49.528Z,18.70
2018-07-17T22:48:17.979Z,18.70
2018-07-17T22:50:46.371Z,18.60
2018-07-17T22:53:14.807Z,18.50
2018-07-17T22:55:43.277Z,18.40
2018-07-17T22:58:11.675Z,18.30
2018-07-17T23:00:40.072Z,18.20
2018-07-17T23:03:08.526Z,18.10
2018-07-17T23:05:36.924Z,18.10
2018-07-17T23:08:05.488Z,18.10
2018-07-17T23:10:34.084Z,18.00
2018-07-17T23:13:03.268Z,17.90
2018-07-17T23:15:31.640Z,17.90
2018-07-17T23:18:00.163Z,17.80
2018-07-17T23:20:28.578Z,17.80
2018-07-17T23:22:58.060Z,17.70
2018-07-17T23:25:27.960Z,17.60
2018-07-17T23:27:57.102Z,17.50
2018-07-17T23:30:25.563Z,17.50
2018-07-17T23:32:54.988Z,17.50
2018-07-17T23:35:24.367Z,17.40
2018-07-17T23:37:53.327Z,17.30
2018-07-17T23:40:22.264Z,17.30
2018-07-17T23:42:50.635Z,17.20
2018-07-17T23:45:19.331Z,17.10
2018-07-17T23:47:48.427Z,17.00
2018-07-17T23:50:16.857Z,17.00
2018-07-17T23:52:45.293Z,16.90
2018-07-17T23:55:13.687Z,16.80
2018-07-17T23:57:42.102Z,16.80
